sensor_id;sensor_type;location;lat;lon;timestamp;temperature;humidity
39347;DHT22;26262;49.836;6.632;2022-07-29T00:01:25;18.20;99.00
39347;DHT22;26262;49.836;6.632;2022-07-29T00:03:51;17.90;99.50
39347;DHT22;26262;49.836;6.632;2022-07-29T00:06:16;18.20;99.50
39347;DHT22;26262;49.836;6.632;2022-07-29T00:08:42;18.20;99.40
39347;DHT22;26262;49.836;6.632;2022-07-29T00:11:07;18.30;99.20
39347;DHT22;26262;49.836;6.632;2022-07-29T00:13:33;18.40;99.00
39347;DHT22;26262;49.836;6.632;2022-07-29T00:15:59;18.30;99.10
39347;DHT22;26262;49.836;6.632;2022-07-29T00:18:24;18.30;99.00
39347;DHT22;26262;49.836;6.632;2022-07-29T00:20:50;18.30;99.10
39347;DHT22;26262;49.836;6.632;2022-07-29T00:23:15;18.20;99.20
39347;DHT22;26262;49.836;6.632;2022-07-29T00:25:41;18.00;99.50
39347;DHT22;26262;49.836;6.632;2022-07-29T00:28:06;18.00;99.50
39347;DHT22;26262;49.836;6.632;2022-07-29T00:30:32;17.60;99.90
39347;DHT22;26262;49.836;6.632;2022-07-29T00:32:57;17.50;99.90
39347;DHT22;26262;49.836;6.632;2022-07-29T00:35:23;17.50;99.90
39347;DHT22;26262;49.836;6.632;2022-07-29T00:38:07;17.70;99.90
39347;DHT22;26262;49.836;6.632;2022-07-29T00:40:33;17.90;99.90
39347;DHT22;26262;49.836;6.632;2022-07-29T00:42:59;17.60;99.90
39347;DHT22;26262;49.836;6.632;2022-07-29T00:45:25;17.80;99.90
39347;DHT22;26262;49.836;6.632;2022-07-29T00:47:50;17.80;99.90
39347;DHT22;26262;49.836;6.632;2022-07-29T00:50:16;17.90;99.90
39347;DHT22;26262;49.836;6.632;2022-07-29T00:52:43;17.90;99.90
39347;DHT22;26262;49.836;6.632;2022-07-29T00:55:11;17.70;99.90
39347;DHT22;26262;49.836;6.632;2022-07-29T00:57:37;17.90;99.90
39347;DHT22;26262;49.836;6.632;2022-07-29T01:00:04;17.80;99.90
39347;DHT22;26262;49.836;6.632;2022-07-29T01:02:30;17.70;99.90
39347;DHT22;26262;49.836;6.632;2022-07-29T01:04:56;17.60;99.90
39347;DHT22;26262;49.836;6.632;2022-07-29T01:07:23;17.40;99.90
39347;DHT22;26262;49.836;6.632;2022-07-29T01:09:50;17.30;99.90
39347;DHT22;26262;49.836;6.632;2022-07-29T01:12:23;17.10;99.90
39347;DHT22;26262;49.836;6.632;2022-07-29T01:14:50;17.20;99.90
39347;DHT22;26262;49.836;6.632;2022-07-29T01:17:43;17.20;99.90
39347;DHT22;26262;49.836;6.632;2022-07-29T01:20:25;17.40;99.90
39347;DHT22;26262;49.836;6.632;2022-07-29T01:28:39;17.60;99.90
39347;DHT22;26262;49.836;6.632;2022-07-29T01:31:07;17.60;99.90
39347;DHT22;26262;49.836;6.632;2022-07-29T01:33:39;17.50;99.90
39347;DHT22;26262;49.836;6.632;2022-07-29T01:36:33;17.40;99.90
39347;DHT22;26262;49.836;6.632;2022-07-29T01:39:12;17.40;99.90
39347;DHT22;26262;49.836;6.632;2022-07-29T01:41:56;17.30;99.90
39347;DHT22;26262;49.836;6.632;2022-07-29T01:44:35;17.30;99.90
39347;DHT22;26262;49.836;6.632;2022-07-29T01:47:10;17.20;99.90
39347;DHT22;26262;49.836;6.632;2022-07-29T01:49:40;17.30;99.90
39347;DHT22;26262;49.836;6.632;2022-07-29T01:52:13;17.20;99.90
39347;DHT22;26262;49.836;6.632;2022-07-29T01:54:52;17.00;99.90
39347;DHT22;26262;49.836;6.632;2022-07-29T01:57:21;16.70;99.90
39347;DHT22;26262;49.836;6.632;2022-07-29T01:59:51;16.70;99.90
39347;DHT22;26262;49.836;6.632;2022-07-29T02:02:17;16.70;99.90
39347;DHT22;26262;49.836;6.632;2022-07-29T02:04:44;16.70;99.90
39347;DHT22;26262;49.836;6.632;2022-07-29T02:07:17;16.70;99.90
39347;DHT22;26262;49.836;6.632;2022-07-29T02:09:43;16.80;99.90
39347;DHT22;26262;49.836;6.632;2022-07-29T02:12:11;16.60;99.90
39347;DHT22;26262;49.836;6.632;2022-07-29T02:14:50;16.70;99.90
39347;DHT22;26262;49.836;6.632;2022-07-29T02:17:24;16.80;99.90
39347;DHT22;26262;49.836;6.632;2022-07-29T02:19:53;16.80;99.90
39347;DHT22;26262;49.836;6.632;2022-07-29T02:22:21;16.50;99.90
39347;DHT22;26262;49.836;6.632;2022-07-29T02:24:49;16.60;99.90
39347;DHT22;26262;49.836;6.632;2022-07-29T02:27:19;16.70;99.90
39347;DHT22;26262;49.836;6.632;2022-07-29T02:29:46;16.50;99.90
39347;DHT22;26262;49.836;6.632;2022-07-29T02:32:14;16.60;99.90
39347;DHT22;26262;49.836;6.632;2022-07-29T02:34:42;16.70;99.90
39347;DHT22;26262;49.836;6.632;2022-07-29T02:37:10;16.70;99.90
39347;DHT22;26262;49.836;6.632;2022-07-29T02:39:37;16.70;99.90
39347;DHT22;26262;49.836;6.632;2022-07-29T02:42:05;16.70;99.90
39347;DHT22;26262;49.836;6.632;2022-07-29T02:44:32;16.70;99.90
39347;DHT22;26262;49.836;6.632;2022-07-29T02:47:29;16.70;99.90
39347;DHT22;26262;49.836;6.632;2022-07-29T02:50:21;16.40;99.90
39347;DHT22;26262;49.836;6.632;2022-07-29T02:55:33;16.40;99.90
39347;DHT22;26262;49.836;6.632;2022-07-29T02:58:25;16.10;99.90
39347;DHT22;26262;49.836;6.632;2022-07-29T03:00:55;16.20;99.90
39347;DHT22;26262;49.836;6.632;2022-07-29T03:03:23;16.30;99.90
39347;DHT22;26262;49.836;6.632;2022-07-29T03:05:54;16.00;99.90
39347;DHT22;26262;49.836;6.632;2022-07-29T03:08:21;15.80;99.90
39347;DHT22;26262;49.836;6.632;2022-07-29T03:10:47;15.90;99.90
39347;DHT22;26262;49.836;6.632;2022-07-29T03:13:14;16.00;99.90
39347;DHT22;26262;49.836;6.632;2022-07-29T03:15:40;15.80;99.90
39347;DHT22;26262;49.836;6.632;2022-07-29T03:18:07;15.90;99.90
39347;DHT22;26262;49.836;6.632;2022-07-29T03:20:33;16.00;99.90
39347;DHT22;26262;49.836;6.632;2022-07-29T03:22:59;16.00;99.90
39347;DHT22;26262;49.836;6.632;2022-07-29T03:25:24;15.90;99.90
39347;DHT22;26262;49.836;6.632;2022-07-29T03:27:50;15.90;99.90
39347;DHT22;26262;49.836;6.632;2022-07-29T03:30:15;15.90;99.90
39347;DHT22;26262;49.836;6.632;2022-07-29T03:32:41;15.70;99.90
39347;DHT22;26262;49.836;6.632;2022-07-29T03:35:07;15.60;99.90
39347;DHT22;26262;49.836;6.632;2022-07-29T03:37:33;15.60;99.90
39347;DHT22;26262;49.836;6.632;2022-07-29T03:40:04;15.60;99.90
39347;DHT22;26262;49.836;6.632;2022-07-29T03:42:34;15.60;99.90
39347;DHT22;26262;49.836;6.632;2022-07-29T03:45:05;15.70;99.90
39347;DHT22;26262;49.836;6.632;2022-07-29T03:47:33;15.70;99.90
39347;DHT22;26262;49.836;6.632;2022-07-29T03:50:05;15.70;99.90
39347;DHT22;26262;49.836;6.632;2022-07-29T03:52:31;15.70;99.90
39347;DHT22;26262;49.836;6.632;2022-07-29T03:54:56;15.70;99.90
39347;DHT22;26262;49.836;6.632;2022-07-29T03:57:24;15.70;99.90
39347;DHT22;26262;49.836;6.632;2022-07-29T03:59:51;15.60;99.90
39347;DHT22;26262;49.836;6.632;2022-07-29T04:02:17;15.60;99.90
39347;DHT22;26262;49.836;6.632;2022-07-29T04:04:43;15.60;99.90
39347;DHT22;26262;49.836;6.632;2022-07-29T04:07:12;15.60;99.90
39347;DHT22;26262;49.836;6.632;2022-07-29T04:09:38;15.60;99.90
39347;DHT22;26262;49.836;6.632;2022-07-29T04:12:04;15.60;99.90
39347;DHT22;26262;49.836;6.632;2022-07-29T04:14:31;15.20;99.90
39347;DHT22;26262;49.836;6.632;2022-07-29T04:16:57;15.20;99.90
39347;DHT22;26262;49.836;6.632;2022-07-29T04:19:22;15.20;99.90
39347;DHT22;26262;49.836;6.632;2022-07-29T04:21:48;15.30;99.90
39347;DHT22;26262;49.836;6.632;2022-07-29T04:24:13;15.40;99.90
39347;DHT22;26262;49.836;6.632;2022-07-29T04:26:39;15.40;99.90
39347;DHT22;26262;49.836;6.632;2022-07-29T04:29:04;15.40;99.90
39347;DHT22;26262;49.836;6.632;2022-07-29T04:31:30;15.10;99.90
39347;DHT22;26262;49.836;6.632;2022-07-29T04:33:55;14.60;99.90
39347;DHT22;26262;49.836;6.632;2022-07-29T04:36:21;14.60;99.90
39347;DHT22;26262;49.836;6.632;2022-07-29T04:38:46;14.70;99.90
39347;DHT22;26262;49.836;6.632;2022-07-29T04:41:11;14.80;99.90
39347;DHT22;26262;49.836;6.632;2022-07-29T04:43:37;14.70;99.90
39347;DHT22;26262;49.836;6.632;2022-07-29T04:46:03;14.70;99.90
39347;DHT22;26262;49.836;6.632;2022-07-29T04:48:29;14.90;99.90
39347;DHT22;26262;49.836;6.632;2022-07-29T04:50:55;15.00;99.90
39347;DHT22;26262;49.836;6.632;2022-07-29T04:53:21;15.10;99.90
39347;DHT22;26262;49.836;6.632;2022-07-29T04:55:47;15.10;99.90
39347;DHT22;26262;49.836;6.632;2022-07-29T04:58:12;15.20;99.90
39347;DHT22;26262;49.836;6.632;2022-07-29T05:00:39;15.10;99.90
39347;DHT22;26262;49.836;6.632;2022-07-29T05:03:04;15.10;99.90
39347;DHT22;26262;49.836;6.632;2022-07-29T05:05:30;15.10;99.90
39347;DHT22;26262;49.836;6.632;2022-07-29T05:07:55;15.10;99.90
39347;DHT22;26262;49.836;6.632;2022-07-29T05:10:21;15.10;99.90
39347;DHT22;26262;49.836;6.632;2022-07-29T05:12:47;15.20;99.90
39347;DHT22;26262;49.836;6.632;2022-07-29T05:15:12;15.20;99.90
39347;DHT22;26262;49.836;6.632;2022-07-29T05:17:38;15.30;99.90
39347;DHT22;26262;49.836;6.632;2022-07-29T05:20:05;15.30;99.90
39347;DHT22;26262;49.836;6.632;2022-07-29T05:22:30;15.40;99.90
39347;DHT22;26262;49.836;6.632;2022-07-29T05:24:56;15.50;99.90
39347;DHT22;26262;49.836;6.632;2022-07-29T05:27:21;15.60;99.90
39347;DHT22;26262;49.836;6.632;2022-07-29T05:29:47;15.70;99.90
39347;DHT22;26262;49.836;6.632;2022-07-29T05:32:13;15.70;99.90
39347;DHT22;26262;49.836;6.632;2022-07-29T05:34:38;15.70;99.90
39347;DHT22;26262;49.836;6.632;2022-07-29T05:37:04;15.80;99.90
39347;DHT22;26262;49.836;6.632;2022-07-29T05:39:30;15.80;99.90
39347;DHT22;26262;49.836;6.632;2022-07-29T05:41:56;15.80;99.90
39347;DHT22;26262;49.836;6.632;2022-07-29T05:44:21;15.70;99.90
39347;DHT22;26262;49.836;6.632;2022-07-29T05:46:47;15.70;99.90
39347;DHT22;26262;49.836;6.632;2022-07-29T05:49:12;15.60;99.90
39347;DHT22;26262;49.836;6.632;2022-07-29T05:51:38;15.80;99.90
39347;DHT22;26262;49.836;6.632;2022-07-29T05:54:03;15.90;99.90
39347;DHT22;26262;49.836;6.632;2022-07-29T05:56:29;15.90;99.90
39347;DHT22;26262;49.836;6.632;2022-07-29T05:58:54;16.10;99.90
39347;DHT22;26262;49.836;6.632;2022-07-29T06:01:20;16.20;99.90
39347;DHT22;26262;49.836;6.632;2022-07-29T06:03:45;16.30;99.90
39347;DHT22;26262;49.836;6.632;2022-07-29T06:06:11;16.40;99.90
39347;DHT22;26262;49.836;6.632;2022-07-29T06:08:38;16.50;99.90
39347;DHT22;26262;49.836;6.632;2022-07-29T06:11:04;16.50;99.90
39347;DHT22;26262;49.836;6.632;2022-07-29T06:13:30;16.60;99.90
39347;DHT22;26262;49.836;6.632;2022-07-29T06:15:55;16.70;99.90
39347;DHT22;26262;49.836;6.632;2022-07-29T06:18:21;16.80;99.90
39347;DHT22;26262;49.836;6.632;2022-07-29T06:20:50;17.00;99.90
39347;DHT22;26262;49.836;6.632;2022-07-29T06:23:15;17.10;99.90
39347;DHT22;26262;49.836;6.632;2022-07-29T06:25:41;17.20;99.90
39347;DHT22;26262;49.836;6.632;2022-07-29T06:28:07;17.30;99.90
39347;DHT22;26262;49.836;6.632;2022-07-29T06:30:32;17.30;99.90
39347;DHT22;26262;49.836;6.632;2022-07-29T06:32:58;17.50;99.90
39347;DHT22;26262;49.836;6.632;2022-07-29T06:35:23;17.60;99.90
39347;DHT22;26262;49.836;6.632;2022-07-29T06:37:49;17.70;99.90
39347;DHT22;26262;49.836;6.632;2022-07-29T06:40:15;17.80;99.90
39347;DHT22;26262;49.836;6.632;2022-07-29T06:42:59;17.90;99.90
39347;DHT22;26262;49.836;6.632;2022-07-29T06:45:24;17.90;99.90
39347;DHT22;26262;49.836;6.632;2022-07-29T06:47:50;18.00;99.90
39347;DHT22;26262;49.836;6.632;2022-07-29T06:50:16;18.10;99.90
39347;DHT22;26262;49.836;6.632;2022-07-29T06:52:41;18.20;99.60
39347;DHT22;26262;49.836;6.632;2022-07-29T06:55:07;18.20;99.40
39347;DHT22;26262;49.836;6.632;2022-07-29T06:57:33;18.20;99.50
39347;DHT22;26262;49.836;6.632;2022-07-29T06:59:59;18.30;98.90
39347;DHT22;26262;49.836;6.632;2022-07-29T07:02:25;18.50;98.90
39347;DHT22;26262;49.836;6.632;2022-07-29T07:04:51;18.50;98.30
39347;DHT22;26262;49.836;6.632;2022-07-29T07:07:16;18.60;98.50
39347;DHT22;26262;49.836;6.632;2022-07-29T07:09:42;18.70;98.40
39347;DHT22;26262;49.836;6.632;2022-07-29T07:12:07;18.80;98.20
39347;DHT22;26262;49.836;6.632;2022-07-29T07:14:33;18.90;97.90
39347;DHT22;26262;49.836;6.632;2022-07-29T07:16:59;19.10;97.80
39347;DHT22;26262;49.836;6.632;2022-07-29T07:19:26;19.20;97.60
39347;DHT22;26262;49.836;6.632;2022-07-29T07:21:52;19.40;97.40
39347;DHT22;26262;49.836;6.632;2022-07-29T07:24:18;19.60;97.00
39347;DHT22;26262;49.836;6.632;2022-07-29T07:26:43;19.70;96.50
39347;DHT22;26262;49.836;6.632;2022-07-29T07:29:09;19.90;95.90
39347;DHT22;26262;49.836;6.632;2022-07-29T07:31:36;20.00;95.30
39347;DHT22;26262;49.836;6.632;2022-07-29T07:34:01;20.20;94.60
39347;DHT22;26262;49.836;6.632;2022-07-29T07:36:27;20.50;94.70
39347;DHT22;26262;49.836;6.632;2022-07-29T07:38:53;20.70;94.00
39347;DHT22;26262;49.836;6.632;2022-07-29T07:41:18;20.80;93.80
39347;DHT22;26262;49.836;6.632;2022-07-29T07:43:44;21.00;93.50
39347;DHT22;26262;49.836;6.632;2022-07-29T07:46:09;21.20;93.40
39347;DHT22;26262;49.836;6.632;2022-07-29T07:48:35;21.30;93.70
39347;DHT22;26262;49.836;6.632;2022-07-29T07:51:01;21.40;92.70
39347;DHT22;26262;49.836;6.632;2022-07-29T07:53:26;21.50;92.50
39347;DHT22;26262;49.836;6.632;2022-07-29T07:55:52;21.70;92.50
39347;DHT22;26262;49.836;6.632;2022-07-29T07:58:18;21.90;92.30
39347;DHT22;26262;49.836;6.632;2022-07-29T08:00:43;22.00;92.00
39347;DHT22;26262;49.836;6.632;2022-07-29T08:03:09;22.20;91.60
39347;DHT22;26262;49.836;6.632;2022-07-29T08:05:38;22.30;91.60
39347;DHT22;26262;49.836;6.632;2022-07-29T08:08:04;22.50;90.70
39347;DHT22;26262;49.836;6.632;2022-07-29T08:10:29;22.60;90.40
39347;DHT22;26262;49.836;6.632;2022-07-29T08:13:13;22.70;90.10
39347;DHT22;26262;49.836;6.632;2022-07-29T08:15:40;22.80;90.80
39347;DHT22;26262;49.836;6.632;2022-07-29T08:18:06;23.00;89.10
39347;DHT22;26262;49.836;6.632;2022-07-29T08:20:32;23.10;90.10
39347;DHT22;26262;49.836;6.632;2022-07-29T08:23:01;23.20;90.10
39347;DHT22;26262;49.836;6.632;2022-07-29T08:25:26;23.30;89.30
39347;DHT22;26262;49.836;6.632;2022-07-29T08:27:52;23.40;87.60
39347;DHT22;26262;49.836;6.632;2022-07-29T08:30:18;23.50;87.80
39347;DHT22;26262;49.836;6.632;2022-07-29T08:32:43;23.60;87.40
39347;DHT22;26262;49.836;6.632;2022-07-29T08:35:09;23.70;86.50
39347;DHT22;26262;49.836;6.632;2022-07-29T08:37:34;23.80;87.10
39347;DHT22;26262;49.836;6.632;2022-07-29T08:40:00;23.90;87.40
39347;DHT22;26262;49.836;6.632;2022-07-29T08:42:25;24.10;85.60
39347;DHT22;26262;49.836;6.632;2022-07-29T08:44:51;24.20;86.10
39347;DHT22;26262;49.836;6.632;2022-07-29T08:47:18;24.20;85.20
39347;DHT22;26262;49.836;6.632;2022-07-29T08:49:44;24.40;85.40
39347;DHT22;26262;49.836;6.632;2022-07-29T08:52:12;24.50;86.70
39347;DHT22;26262;49.836;6.632;2022-07-29T08:54:39;24.50;83.30
39347;DHT22;26262;49.836;6.632;2022-07-29T08:57:08;24.60;83.10
39347;DHT22;26262;49.836;6.632;2022-07-29T08:59:34;24.70;83.20
39347;DHT22;26262;49.836;6.632;2022-07-29T09:02:00;24.90;83.30
39347;DHT22;26262;49.836;6.632;2022-07-29T09:04:30;25.10;83.80
39347;DHT22;26262;49.836;6.632;2022-07-29T09:07:00;25.20;83.30
39347;DHT22;26262;49.836;6.632;2022-07-29T09:09:29;25.30;81.60
39347;DHT22;26262;49.836;6.632;2022-07-29T09:11:54;25.30;81.80
39347;DHT22;26262;49.836;6.632;2022-07-29T09:14:20;25.20;82.90
39347;DHT22;26262;49.836;6.632;2022-07-29T09:16:48;25.20;81.00
39347;DHT22;26262;49.836;6.632;2022-07-29T09:19:21;25.20;82.80
39347;DHT22;26262;49.836;6.632;2022-07-29T09:21:47;25.20;82.70
39347;DHT22;26262;49.836;6.632;2022-07-29T09:27:00;25.40;81.40
39347;DHT22;26262;49.836;6.632;2022-07-29T09:29:26;25.70;82.70
39347;DHT22;26262;49.836;6.632;2022-07-29T09:31:54;25.80;81.70
39347;DHT22;26262;49.836;6.632;2022-07-29T09:34:25;26.00;79.40
39347;DHT22;26262;49.836;6.632;2022-07-29T09:36:52;26.00;80.00
39347;DHT22;26262;49.836;6.632;2022-07-29T09:39:28;26.10;79.10
39347;DHT22;26262;49.836;6.632;2022-07-29T09:41:56;26.20;79.50
39347;DHT22;26262;49.836;6.632;2022-07-29T09:44:23;26.00;78.10
39347;DHT22;26262;49.836;6.632;2022-07-29T09:46:59;26.20;77.30
39347;DHT22;26262;49.836;6.632;2022-07-29T09:49:33;26.70;76.80
39347;DHT22;26262;49.836;6.632;2022-07-29T09:52:06;26.70;76.30
39347;DHT22;26262;49.836;6.632;2022-07-29T09:54:32;26.80;77.90
39347;DHT22;26262;49.836;6.632;2022-07-29T09:57:07;27.10;77.30
39347;DHT22;26262;49.836;6.632;2022-07-29T09:59:34;27.80;77.20
39347;DHT22;26262;49.836;6.632;2022-07-29T10:02:00;27.80;74.40
39347;DHT22;26262;49.836;6.632;2022-07-29T10:04:41;28.00;73.90
39347;DHT22;26262;49.836;6.632;2022-07-29T10:07:08;28.40;73.80
39347;DHT22;26262;49.836;6.632;2022-07-29T10:09:34;28.40;71.40
39347;DHT22;26262;49.836;6.632;2022-07-29T10:12:04;28.40;72.20
39347;DHT22;26262;49.836;6.632;2022-07-29T10:14:31;28.10;71.60
39347;DHT22;26262;49.836;6.632;2022-07-29T10:16:59;28.50;71.80
39347;DHT22;26262;49.836;6.632;2022-07-29T10:19:27;28.60;72.50
39347;DHT22;26262;49.836;6.632;2022-07-29T10:21:53;29.10;71.30
39347;DHT22;26262;49.836;6.632;2022-07-29T10:24:19;29.50;70.10
39347;DHT22;26262;49.836;6.632;2022-07-29T10:26:46;29.90;70.40
39347;DHT22;26262;49.836;6.632;2022-07-29T10:29:13;30.10;70.40
39347;DHT22;26262;49.836;6.632;2022-07-29T10:31:47;30.20;70.80
39347;DHT22;26262;49.836;6.632;2022-07-29T10:34:23;30.00;66.70
39347;DHT22;26262;49.836;6.632;2022-07-29T10:37:07;29.70;68.20
39347;DHT22;26262;49.836;6.632;2022-07-29T10:40:00;29.80;66.20
39347;DHT22;26262;49.836;6.632;2022-07-29T10:42:52;30.00;67.30
39347;DHT22;26262;49.836;6.632;2022-07-29T10:45:18;30.20;65.90
39347;DHT22;26262;49.836;6.632;2022-07-29T10:47:44;30.30;64.90
39347;DHT22;26262;49.836;6.632;2022-07-29T10:50:10;29.80;63.90
39347;DHT22;26262;49.836;6.632;2022-07-29T10:55:38;30.30;64.70
39347;DHT22;26262;49.836;6.632;2022-07-29T10:58:20;30.30;64.30
39347;DHT22;26262;49.836;6.632;2022-07-29T11:00:48;30.30;65.80
39347;DHT22;26262;49.836;6.632;2022-07-29T11:03:42;30.20;64.80
39347;DHT22;26262;49.836;6.632;2022-07-29T11:06:09;30.40;65.10
39347;DHT22;26262;49.836;6.632;2022-07-29T11:08:34;30.10;64.60
39347;DHT22;26262;49.836;6.632;2022-07-29T11:13:45;30.40;62.10
39347;DHT22;26262;49.836;6.632;2022-07-29T11:16:16;30.00;62.60
39347;DHT22;26262;49.836;6.632;2022-07-29T11:21:36;29.70;61.70
39347;DHT22;26262;49.836;6.632;2022-07-29T11:24:16;29.90;59.80
39347;DHT22;26262;49.836;6.632;2022-07-29T11:26:42;29.20;60.20
39347;DHT22;26262;49.836;6.632;2022-07-29T11:29:20;28.90;59.50
39347;DHT22;26262;49.836;6.632;2022-07-29T11:31:51;28.70;60.10
39347;DHT22;26262;49.836;6.632;2022-07-29T11:34:23;28.70;61.60
39347;DHT22;26262;49.836;6.632;2022-07-29T11:47:31;30.90;58.50
39347;DHT22;26262;49.836;6.632;2022-07-29T11:49:58;31.40;58.50
39347;DHT22;26262;49.836;6.632;2022-07-29T11:52:35;30.90;58.20
39347;DHT22;26262;49.836;6.632;2022-07-29T11:55:05;30.60;57.20
39347;DHT22;26262;49.836;6.632;2022-07-29T11:59:58;32.40;66.80
39347;DHT22;26262;49.836;6.632;2022-07-29T12:02:24;32.90;57.00
39347;DHT22;26262;49.836;6.632;2022-07-29T12:04:54;33.20;56.70
39347;DHT22;26262;49.836;6.632;2022-07-29T12:07:30;33.30;55.80
39347;DHT22;26262;49.836;6.632;2022-07-29T12:09:56;32.90;55.80
39347;DHT22;26262;49.836;6.632;2022-07-29T12:12:23;31.80;54.20
39347;DHT22;26262;49.836;6.632;2022-07-29T12:14:49;32.20;55.70
39347;DHT22;26262;49.836;6.632;2022-07-29T12:17:32;32.60;56.30
39347;DHT22;26262;49.836;6.632;2022-07-29T12:20:00;32.90;55.20
39347;DHT22;26262;49.836;6.632;2022-07-29T12:22:32;33.00;55.40
39347;DHT22;26262;49.836;6.632;2022-07-29T12:25:06;33.40;54.90
39347;DHT22;26262;49.836;6.632;2022-07-29T12:27:32;35.30;65.50
39347;DHT22;26262;49.836;6.632;2022-07-29T12:30:04;33.70;54.20
39347;DHT22;26262;49.836;6.632;2022-07-29T12:32:34;34.20;53.00
39347;DHT22;26262;49.836;6.632;2022-07-29T12:35:08;34.20;51.90
39347;DHT22;26262;49.836;6.632;2022-07-29T12:37:36;33.40;53.30
39347;DHT22;26262;49.836;6.632;2022-07-29T12:40:04;32.50;52.90
39347;DHT22;26262;49.836;6.632;2022-07-29T12:42:31;32.00;54.30
39347;DHT22;26262;49.836;6.632;2022-07-29T12:44:57;32.00;53.60
39347;DHT22;26262;49.836;6.632;2022-07-29T12:47:23;32.40;55.30
39347;DHT22;26262;49.836;6.632;2022-07-29T12:49:49;32.80;54.50
39347;DHT22;26262;49.836;6.632;2022-07-29T12:52:31;31.50;55.20
39347;DHT22;26262;49.836;6.632;2022-07-29T12:54:57;32.30;56.70
39347;DHT22;26262;49.836;6.632;2022-07-29T12:57:23;32.40;54.60
39347;DHT22;26262;49.836;6.632;2022-07-29T13:00:03;32.80;54.30
39347;DHT22;26262;49.836;6.632;2022-07-29T13:02:29;33.10;52.60
39347;DHT22;26262;49.836;6.632;2022-07-29T13:04:57;33.20;51.30
39347;DHT22;26262;49.836;6.632;2022-07-29T13:07:27;33.30;50.80
39347;DHT22;26262;49.836;6.632;2022-07-29T13:13:00;33.20;51.50
39347;DHT22;26262;49.836;6.632;2022-07-29T13:15:25;32.20;52.30
39347;DHT22;26262;49.836;6.632;2022-07-29T13:17:51;32.40;51.40
39347;DHT22;26262;49.836;6.632;2022-07-29T13:20:17;33.00;52.50
39347;DHT22;26262;49.836;6.632;2022-07-29T13:22:42;33.50;52.40
39347;DHT22;26262;49.836;6.632;2022-07-29T13:25:09;32.70;51.00
39347;DHT22;26262;49.836;6.632;2022-07-29T13:27:37;31.70;51.30
39347;DHT22;26262;49.836;6.632;2022-07-29T13:30:08;32.30;52.80
39347;DHT22;26262;49.836;6.632;2022-07-29T13:32:34;32.50;50.60
39347;DHT22;26262;49.836;6.632;2022-07-29T13:35:04;32.40;51.90
39347;DHT22;26262;49.836;6.632;2022-07-29T13:37:30;32.50;52.10
39347;DHT22;26262;49.836;6.632;2022-07-29T13:39:58;31.70;51.20
39347;DHT22;26262;49.836;6.632;2022-07-29T13:42:25;31.70;53.80
39347;DHT22;26262;49.836;6.632;2022-07-29T13:44:51;32.00;53.00
39347;DHT22;26262;49.836;6.632;2022-07-29T13:47:18;32.90;52.10
39347;DHT22;26262;49.836;6.632;2022-07-29T13:49:44;33.50;51.00
39347;DHT22;26262;49.836;6.632;2022-07-29T13:52:09;34.00;50.30
39347;DHT22;26262;49.836;6.632;2022-07-29T13:54:35;34.50;51.40
39347;DHT22;26262;49.836;6.632;2022-07-29T13:57:04;34.50;48.50
39347;DHT22;26262;49.836;6.632;2022-07-29T13:59:30;34.90;47.90
39347;DHT22;26262;49.836;6.632;2022-07-29T14:01:55;34.90;48.00
39347;DHT22;26262;49.836;6.632;2022-07-29T14:04:21;34.40;47.00
39347;DHT22;26262;49.836;6.632;2022-07-29T14:06:49;32.80;46.80
39347;DHT22;26262;49.836;6.632;2022-07-29T14:09:14;32.30;47.80
39347;DHT22;26262;49.836;6.632;2022-07-29T14:11:40;31.50;49.60
39347;DHT22;26262;49.836;6.632;2022-07-29T14:14:06;31.20;49.20
39347;DHT22;26262;49.836;6.632;2022-07-29T14:16:31;30.90;50.50
39347;DHT22;26262;49.836;6.632;2022-07-29T14:18:57;31.00;50.90
39347;DHT22;26262;49.836;6.632;2022-07-29T14:21:23;31.20;51.50
39347;DHT22;26262;49.836;6.632;2022-07-29T14:23:48;31.60;51.80
39347;DHT22;26262;49.836;6.632;2022-07-29T14:26:14;31.10;50.60
39347;DHT22;26262;49.836;6.632;2022-07-29T14:28:39;30.60;51.00
39347;DHT22;26262;49.836;6.632;2022-07-29T14:31:05;29.90;50.90
39347;DHT22;26262;49.836;6.632;2022-07-29T14:33:30;29.90;52.40
39347;DHT22;26262;49.836;6.632;2022-07-29T14:35:56;30.30;52.10
39347;DHT22;26262;49.836;6.632;2022-07-29T14:38:21;30.60;53.40
39347;DHT22;26262;49.836;6.632;2022-07-29T14:40:47;31.20;52.00
39347;DHT22;26262;49.836;6.632;2022-07-29T14:43:13;31.20;51.90
39347;DHT22;26262;49.836;6.632;2022-07-29T14:45:40;31.20;50.40
39347;DHT22;26262;49.836;6.632;2022-07-29T14:48:06;31.20;51.90
39347;DHT22;26262;49.836;6.632;2022-07-29T14:50:31;30.90;52.30
39347;DHT22;26262;49.836;6.632;2022-07-29T14:52:57;30.90;52.20
39347;DHT22;26262;49.836;6.632;2022-07-29T14:55:23;30.90;52.20
39347;DHT22;26262;49.836;6.632;2022-07-29T14:57:48;30.30;53.50
39347;DHT22;26262;49.836;6.632;2022-07-29T15:00:16;30.30;54.70
39347;DHT22;26262;49.836;6.632;2022-07-29T15:02:42;29.70;54.30
39347;DHT22;26262;49.836;6.632;2022-07-29T15:05:07;29.60;54.60
39347;DHT22;26262;49.836;6.632;2022-07-29T15:07:33;29.70;55.10
39347;DHT22;26262;49.836;6.632;2022-07-29T15:09:59;29.40;55.20
39347;DHT22;26262;49.836;6.632;2022-07-29T15:12:24;29.70;57.30
39347;DHT22;26262;49.836;6.632;2022-07-29T15:14:50;29.90;56.80
39347;DHT22;26262;49.836;6.632;2022-07-29T15:17:15;29.60;56.60
39347;DHT22;26262;49.836;6.632;2022-07-29T15:19:41;29.60;58.20
39347;DHT22;26262;49.836;6.632;2022-07-29T15:22:06;29.60;58.80
39347;DHT22;26262;49.836;6.632;2022-07-29T15:24:32;29.50;59.30
39347;DHT22;26262;49.836;6.632;2022-07-29T15:26:58;29.50;60.70
39347;DHT22;26262;49.836;6.632;2022-07-29T15:29:23;29.60;59.20
39347;DHT22;26262;49.836;6.632;2022-07-29T15:31:49;29.80;60.40
39347;DHT22;26262;49.836;6.632;2022-07-29T15:34:14;29.90;60.40
39347;DHT22;26262;49.836;6.632;2022-07-29T15:36:40;29.90;61.40
39347;DHT22;26262;49.836;6.632;2022-07-29T15:39:06;30.00;61.10
39347;DHT22;26262;49.836;6.632;2022-07-29T15:41:32;29.90;61.30
39347;DHT22;26262;49.836;6.632;2022-07-29T15:43:58;29.80;60.70
39347;DHT22;26262;49.836;6.632;2022-07-29T15:46:23;29.60;62.50
39347;DHT22;26262;49.836;6.632;2022-07-29T15:49:07;29.40;61.90
39347;DHT22;26262;49.836;6.632;2022-07-29T15:51:33;29.40;62.30
39347;DHT22;26262;49.836;6.632;2022-07-29T15:54:01;29.30;61.50
39347;DHT22;26262;49.836;6.632;2022-07-29T15:56:27;29.20;62.90
39347;DHT22;26262;49.836;6.632;2022-07-29T15:58:53;29.20;64.00
39347;DHT22;26262;49.836;6.632;2022-07-29T16:01:19;29.00;63.20
39347;DHT22;26262;49.836;6.632;2022-07-29T16:03:44;28.90;64.00
39347;DHT22;26262;49.836;6.632;2022-07-29T16:06:10;28.90;64.00
39347;DHT22;26262;49.836;6.632;2022-07-29T16:08:35;28.90;64.20
39347;DHT22;26262;49.836;6.632;2022-07-29T16:11:01;28.60;64.90